Time;durP1;ratioP1;P1;durP2;ratioP2;P2;SDS_P1;SDS_P2;PMS_P1;PMS_P2;Temp;Humidity;BMP_temperature;BMP_pressure;BME280_temperature;BME280_humidity;BME280_pressure;Samples;Min_cycle;Max_cycle;Signal;HPM_P1;HPM_P2
2022/01/06 00:00:46;;;;;;;2.58;1.00;;;;;;;1.03;73.24;100842.63;6161076;23;20009;-77
2022/01/06 00:03:17;;;;;;;1.45;1.20;;;;;;;1.00;72.87;100839.50;6161342;23;20000;-77
2022/01/06 00:05:43;;;;;;;1.80;1.70;;;;;;;0.98;72.74;100839.69;6162522;23;20063;-77
2022/01/06 00:08:08;;;;;;;3.47;1.52;;;;;;;0.99;73.31;100843.19;6160954;23;20020;-76
2022/01/06 00:10:34;;;;;;;2.53;1.15;;;;;;;1.02;73.36;100850.91;6186202;23;20083;-76
2022/01/06 00:23:04;;;;;;;1.40;1.30;;;;;;;0.94;73.46;100851.03;6164013;23;20019;-77
2022/01/06 00:23:42;;;;;;;4.03;1.90;;;;;;;0.86;72.97;100854.66;6212604;23;20015;-79
2022/01/06 00:26:09;;;;;;;3.85;2.45;;;;;;;0.84;73.35;100852.19;6214014;23;20004;-76
2022/01/06 00:28:36;;;;;;;2.83;1.65;;;;;;;0.91;74.07;100862.19;6214035;23;20001;-76
2022/01/06 00:31:02;;;;;;;1.60;1.50;;;;;;;0.86;73.75;100851.97;6186751;23;20012;-77
2022/01/06 00:33:30;;;;;;;4.30;1.30;;;;;;;0.79;74.21;100860.00;6186979;23;20383;-77
2022/01/06 00:35:55;;;;;;;2.13;1.92;;;;;;;0.79;74.26;100873.47;6213973;23;20122;-77
2022/01/06 00:38:24;;;;;;;1.25;1.10;;;;;;;0.74;73.74;100869.69;6214142;23;20035;-77
2022/01/06 00:41:12;;;;;;;1.20;1.08;;;;;;;0.72;73.37;100875.25;6163342;23;20024;-77
2022/01/06 00:43:40;;;;;;;2.05;0.85;;;;;;;0.73;73.61;100871.53;6215522;23;20016;-77
2022/01/06 00:46:08;;;;;;;1.20;0.80;;;;;;;0.65;73.70;100853.63;6219712;23;20008;-78
2022/01/06 00:48:36;;;;;;;0.52;0.50;;;;;;;0.62;73.55;100850.50;6218639;23;20004;-77
2022/01/06 00:51:15;;;;;;;;;;;;;;;;;;;;;
2022/01/06 00:53:41;;;;;;;0.40;0.30;;;;;;;0.50;73.33;100834.84;6244703;23;20365;-78
2022/01/06 00:56:09;;;;;;;1.73;0.40;;;;;;;0.51;73.58;100831.13;6218902;23;20044;-78
2022/01/06 00:58:38;;;;;;;1.15;0.30;;;;;;;0.48;73.44;100826.13;6217710;23;20012;-77
2022/01/06 01:01:11;;;;;;;0.25;0.25;;;;;;;0.61;73.06;100846.94;6217416;23;20012;-76
2022/01/06 01:03:39;;;;;;;0.30;0.30;;;;;;;0.59;72.93;100848.19;6245039;23;20008;-76
2022/01/06 01:06:05;;;;;;;0.25;0.25;;;;;;;0.50;73.51;100845.59;6192175;23;20008;-76
2022/01/06 01:08:38;;;;;;;0.20;0.20;;;;;;;0.49;73.00;100849.31;6215934;23;20114;-79
2022/01/06 01:11:05;;;;;;;0.47;0.47;;;;;;;0.38;73.44;100836.38;6217740;23;19996;-78
2022/01/06 01:13:47;;;;;;;;;;;;;;;;;;;;;
2022/01/06 01:16:23;;;;;;;0.60;0.60;;;;;;;0.37;73.04;100840.06;6243260;23;20083;-77
2022/01/06 01:18:49;;;;;;;;;;;;;;;0.44;72.79;100851.75;6171118;23;20008;-78
2022/01/06 01:21:16;;;;;;;0.40;0.40;;;;;;;0.33;73.19;100838.78;6242640;23;19915;-78
2022/01/06 01:23:41;;;;;;;0.43;0.43;;;;;;;0.38;73.09;100852.50;6217194;23;20004;-77
2022/01/06 01:26:07;;;;;;;0.50;0.50;;;;;;;0.34;73.01;100848.53;6216693;23;20011;-77
2022/01/06 01:28:42;;;;;;;2.28;1.00;;;;;;;0.34;73.00;100854.72;6191848;23;20202;-78
2022/01/06 01:33:39;;;;;;;1.55;1.45;;;;;;;0.22;73.54;100825.78;6253755;23;20142;-78
2022/01/06 01:36:07;;;;;;;5.45;0.95;;;;;;;0.32;73.40;100837.09;6215841;23;20039;-78
2022/01/06 01:38:33;;;;;;;1.67;1.50;;;;;;;0.30;73.41;100844.53;6191531;23;20004;-77
2022/01/06 01:40:58;;;;;;;3.72;1.88;;;;;;;0.24;73.91;100826.47;6189597;23;20062;-76
2022/01/06 01:43:23;;;;;;;1.90;1.80;;;;;;;0.21;73.48;100824.16;6216303;23;20031;-76
2022/01/06 01:45:55;;;;;;;2.25;1.50;;;;;;;0.21;73.66;100818.78;6216073;23;20008;-75
2022/01/06 01:48:26;;;;;;;2.97;2.00;;;;;;;0.15;74.31;100826.56;6243488;23;20073;-76
2022/01/06 01:50:52;;;;;;;3.50;1.70;;;;;;;0.13;74.83;100831.28;6215491;23;20043;-76
2022/01/06 01:53:17;;;;;;;1.48;1.38;;;;;;;0.09;74.79;100832.69;6216622;23;20011;-77
2022/01/06 01:55:46;;;;;;;4.80;2.17;;;;;;;0.04;74.70;100829.72;6216440;23;20011;-76
2022/01/06 01:58:12;;;;;;;2.15;1.42;;;;;;;0.00;74.50;100823.06;6166072;23;20465;-75
2022/01/06 02:00:37;;;;;;;3.65;1.98;;;;;;;0.04;75.22;100818.94;6243494;23;20035;-76
2022/01/06 02:03:03;;;;;;;6.10;2.35;;;;;;;0.08;75.00;100831.00;6215532;23;20012;-75
2022/01/06 02:05:29;;;;;;;2.85;2.22;;;;;;;0.09;75.15;100832.69;6216864;23;20423;-75
2022/01/06 02:07:56;;;;;;;3.53;1.83;;;;;;;0.10;75.33;100831.69;6242687;23;20008;-76
2022/01/06 02:10:21;;;;;;;2.00;1.90;;;;;;;0.10;75.03;100834.38;6216778;23;20442;-76
2022/01/06 02:12:49;;;;;;;2.05;1.33;;;;;;;0.11;75.01;100829.81;6217166;23;20000;-76
2022/01/06 02:15:16;;;;;;;0.90;0.73;;;;;;;0.10;75.31;100834.38;6216056;23;20081;-78
2022/01/06 02:17:43;;;;;;;1.88;0.85;;;;;;;0.03;75.08;100832.59;6190657;23;20446;-77
2022/01/06 02:20:14;;;;;;;1.23;0.80;;;;;;;0.02;75.78;100839.81;6214471;23;20111;-78
2022/01/06 02:22:43;;;;;;;1.20;1.10;;;;;;;-0.10;75.05;100833.22;6243563;23;20038;-77
2022/01/06 02:25:18;;;;;;;1.52;1.30;;;;;;;-0.15;74.78;100831.09;6218173;23;20004;-76
2022/01/06 02:27:52;;;;;;;1.30;1.17;;;;;;;-0.18;75.17;100842.22;6216780;23;19996;-76
2022/01/06 02:30:19;;;;;;;0.80;0.75;;;;;;;-0.21;74.99;100847.97;6243881;23;20330;-77
2022/01/06 02:32:45;;;;;;;1.65;1.55;;;;;;;-0.29;74.84;100846.22;6243805;23;20008;-77
2022/01/06 02:35:17;;;;;;;6.35;2.55;;;;;;;-0.28;75.06;100855.94;6241919;23;20399;-76
2022/01/06 02:37:43;;;;;;;2.75;2.53;;;;;;;-0.36;75.08;100848.81;6244216;23;20000;-76
2022/01/06 02:40:12;;;;;;;5.25;4.28;;;;;;;-0.44;74.54;100846.22;6243046;23;20074;-75
2022/01/06 02:42:42;;;;;;;5.22;3.80;;;;;;;-0.65;74.52;100822.72;6241781;22;20016;-76
2022/01/06 02:45:08;;;;;;;5.55;3.65;;;;;;;-0.64;75.25;100848.59;6244064;23;20004;-77
2022/01/06 02:47:36;;;;;;;4.45;2.63;;;;;;;-0.71;75.25;100837.72;6216282;23;20012;-76
2022/01/06 02:50:03;;;;;;;2.83;2.28;;;;;;;-0.74;75.22;100842.63;6216941;23;20393;-76
2022/01/06 02:52:29;;;;;;;1.60;1.50;;;;;;;-0.78;75.75;100831.41;6216448;23;20000;-75
2022/01/06 02:54:57;;;;;;;2.17;1.20;;;;;;;-0.75;75.39;100840.94;6191135;23;20021;-76
2022/01/06 02:57:23;;;;;;;3.03;1.70;;;;;;;-0.82;75.47;100835.47;6193537;23;20011;-76
2022/01/06 02:59:56;;;;;;;1.33;1.10;;;;;;;-0.75;74.83;100840.94;6240184;23;20012;-75
2022/01/06 03:02:21;;;;;;;2.17;1.05;;;;;;;-0.74;75.25;100832.72;6192864;23;20016;-77
2022/01/06 03:04:47;;;;;;;0.75;0.75;;;;;;;-0.73;75.06;100833.53;6244065;23;20303;-76
2022/01/06 03:07:12;;;;;;;1.38;1.27;;;;;;;-0.75;75.51;100836.41;6193605;23;20012;-77
2022/01/06 03:09:40;;;;;;;0.75;0.75;;;;;;;-0.72;75.69;100830.66;6218329;23;20023;-77
2022/01/06 03:12:18;;;;;;;1.35;1.25;;;;;;;-0.69;75.54;100823.28;6217933;23;20015;-75
2022/01/06 03:14:44;;;;;;;1.67;1.58;;;;;;;-0.71;75.99;100813.53;6217919;23;20008;-76
2022/01/06 03:17:11;;;;;;;1.40;1.30;;;;;;;-0.65;76.46;100817.34;6218142;23;20110;-76
2022/01/06 03:19:37;;;;;;;3.35;2.53;;;;;;;-0.56;75.85;100824.31;6216128;23;20003;-76
2022/01/06 03:22:03;;;;;;;3.33;2.50;;;;;;;-0.58;75.62;100826.34;6243984;23;20026;-77
2022/01/06 03:24:28;;;;;;;4.63;2.78;;;;;;;-0.64;75.49;100810.97;6217789;23;20027;-75
2022/01/06 03:26:54;;;;;;;2.35;1.52;;;;;;;-0.55;75.17;100825.97;6244178;23;20008;-75
2022/01/06 03:29:19;;;;;;;5.93;2.28;;;;;;;-0.60;75.91;100830.22;6218418;23;20008;-75
2022/01/06 03:31:45;;;;;;;2.22;2.08;;;;;;;-0.63;76.31;100827.91;6245664;23;20058;-76
2022/01/06 03:34:13;;;;;;;5.45;1.55;;;;;;;-0.69;75.88;100818.72;6217399;23;20109;-76
2022/01/06 03:36:39;;;;;;;3.15;1.55;;;;;;;-0.70;76.50;100817.09;6218392;23;20346;-77
2022/01/06 03:39:05;;;;;;;3.47;2.20;;;;;;;-0.67;75.84;100826.59;6220921;23;20023;-77
2022/01/06 03:41:33;;;;;;;1.58;1.33;;;;;;;-0.68;76.04;100814.22;6244752;22;20004;-77
2022/01/06 03:44:02;;;;;;;1.48;1.38;;;;;;;-0.79;76.37;100802.91;6251317;23;20079;-77
2022/01/06 03:46:35;;;;;;;1.30;0.98;;;;;;;-0.83;75.49;100798.91;6222271;23;20011;-75
2022/01/06 03:49:13;;;;;;;;;;;;;;;;;;;;;
2022/01/06 03:51:46;;;;;;;0.60;0.57;;;;;;;-0.83;75.61;100787.31;6244081;23;20079;-75
2022/01/06 03:54:12;;;;;;;2.40;2.30;;;;;;;-0.77;75.95;100805.41;6218767;23;20008;-74
2022/01/06 03:56:48;;;;;;;11.07;2.50;;;;;;;-0.86;76.12;100787.66;6245909;23;20364;-75
2022/01/06 03:59:15;;;;;;;2.75;2.03;;;;;;;-0.84;75.56;100789.16;6192603;23;20004;-74
2022/01/06 04:01:46;;;;;;;2.70;2.50;;;;;;;-0.93;75.54;100783.03;6245448;23;20000;-72
2022/01/06 04:04:13;;;;;;;2.95;2.42;;;;;;;-0.94;76.09;100778.66;6214988;23;20050;-73
2022/01/06 04:06:46;;;;;;;1.67;1.58;;;;;;;-1.01;76.08;100772.34;6192708;23;20000;-73
2022/01/06 04:09:12;;;;;;;4.47;2.30;;;;;;;-1.00;76.51;100778.56;6243432;23;20000;-72
2022/01/06 04:11:40;;;;;;;5.20;3.03;;;;;;;-1.06;76.01;100774.75;6190542;23;20008;-74
2022/01/06 04:14:05;;;;;;;6.63;1.92;;;;;;;-1.08;76.51;100787.50;6192100;23;20008;-73
2022/01/06 04:16:35;;;;;;;1.77;1.67;;;;;;;-1.28;75.31;100766.53;6216515;23;20331;-73
2022/01/06 04:19:01;;;;;;;7.13;2.10;;;;;;;-1.29;75.46;100764.03;6215303;23;20089;-72
2022/01/06 04:21:26;;;;;;;13.40;2.55;;;;;;;-1.32;75.93;100765.22;6243536;23;20392;-73
2022/01/06 04:23:54;;;;;;;2.40;2.22;;;;;;;-1.33;75.30;100766.25;6226216;23;20016;-73
2022/01/06 04:26:20;;;;;;;2.47;1.75;;;;;;;-1.32;75.91;100784.00;6228824;23;20028;-71
2022/01/06 04:28:45;;;;;;;3.90;2.25;;;;;;;-1.36;76.38;100763.91;6232363;23;20039;-75
2022/01/06 04:31:13;;;;;;;2.40;2.17;;;;;;;-1.39;75.93;100763.44;6205300;23;20518;-74
2022/01/06 04:33:41;;;;;;;6.20;2.65;;;;;;;-1.48;75.88;100758.13;6260950;23;20011;-74
2022/01/06 04:36:08;;;;;;;3.30;3.00;;;;;;;-1.51;75.94;100755.00;6234201;23;20004;-74
2022/01/06 04:38:34;;;;;;;9.25;3.45;;;;;;;-1.42;76.56;100765.50;6215009;23;20019;-75
2022/01/06 04:40:59;;;;;;;4.13;2.05;;;;;;;-1.51;76.23;100746.94;6243565;23;20004;-75
2022/01/06 04:43:27;;;;;;;3.88;2.50;;;;;;;-1.42;76.52;100775.38;6242390;22;20487;-75
2022/01/06 04:45:56;;;;;;;3.78;2.70;;;;;;;-1.51;75.96;100755.00;6218025;23;20008;-74
2022/01/06 04:48:30;;;;;;;2.55;2.30;;;;;;;-1.51;76.98;100749.63;6190180;23;20008;-74
2022/01/06 04:50:58;;;;;;;1.90;1.67;;;;;;;-1.45;76.39;100754.28;6217571;23;20067;-75
2022/01/06 04:53:23;;;;;;;4.40;2.15;;;;;;;-1.61;76.55;100729.25;6213203;23;20015;-74
2022/01/06 04:55:51;;;;;;;1.02;1.02;;;;;;;-1.48;77.08;100749.25;6218583;23;20004;-74
2022/01/06 04:58:17;;;;;;;1.20;1.20;;;;;;;-1.48;76.97;100749.25;6217036;23;20063;-73
2022/01/06 05:00:42;;;;;;;1.20;0.90;;;;;;;-1.59;76.39;100718.34;6217440;23;20004;-74
2022/01/06 05:03:07;;;;;;;0.80;0.80;;;;;;;-1.42;76.92;100756.59;6217187;23;20034;-74
2022/01/06 05:05:33;;;;;;;1.75;0.82;;;;;;;-1.49;76.39;100745.75;6213648;23;20012;-74
2022/01/06 05:08:01;;;;;;;0.73;0.60;;;;;;;-1.60;77.08;100730.91;6217099;23;20375;-74
2022/01/06 05:10:26;;;;;;;1.95;1.80;;;;;;;-1.66;76.52;100726.25;6243138;23;20050;-74
2022/01/06 05:12:52;;;;;;;5.30;3.92;;;;;;;-1.58;77.09;100744.97;6192454;23;20024;-75
2022/01/06 05:15:17;;;;;;;6.03;3.00;;;;;;;-1.63;76.70;100741.97;6240722;23;20015;-74
2022/01/06 05:17:43;;;;;;;3.97;3.38;;;;;;;-1.53;77.45;100767.72;6164205;23;20011;-73
2022/01/06 05:20:09;;;;;;;3.20;2.53;;;;;;;-1.61;77.18;100747.16;6189609;23;20004;-74
2022/01/06 05:22:41;;;;;;;7.55;2.90;;;;;;;-1.56;77.86;100754.69;6217492;23;20757;-74
2022/01/06 05:25:07;;;;;;;2.90;2.70;;;;;;;-1.59;77.26;100751.34;6244786;23;20000;-73
2022/01/06 05:27:32;;;;;;;2.95;1.83;;;;;;;-1.63;76.76;100744.66;6244820;23;20027;-74
2022/01/06 05:30:08;;;;;;;4.10;3.53;;;;;;;-1.62;77.32;100748.16;6216143;23;20011;-74
2022/01/06 05:32:36;;;;;;;;;;;;;;;-1.54;77.03;100742.75;6243012;23;20008;-73
2022/01/06 05:35:02;;;;;;;7.97;3.20;;;;;;;-1.60;77.13;100741.63;6214278;23;19908;-73
2022/01/06 05:37:28;;;;;;;6.22;3.55;;;;;;;-1.65;76.63;100738.66;6243132;23;20446;-75
2022/01/06 05:39:53;;;;;;;2.10;2.00;;;;;;;-1.52;78.17;100753.31;6243273;23;20008;-74
2022/01/06 05:42:23;;;;;;;4.72;2.85;;;;;;;-1.54;77.80;100744.63;6240004;22;20043;-75
2022/01/06 05:44:49;;;;;;;6.20;3.10;;;;;;;-1.53;77.78;100746.28;6189715;23;20784;-76
2022/01/06 05:47:14;;;;;;;3.22;3.03;;;;;;;-1.40;78.05;100765.31;6214000;23;20083;-76
2022/01/06 05:49:40;;;;;;;3.97;3.35;;;;;;;-1.46;78.01;100747.22;6243439;23;20411;-75
2022/01/06 05:52:06;;;;;;;2.85;2.55;;;;;;;-1.39;77.25;100742.00;6214221;23;20004;-77
2022/01/06 05:54:32;;;;;;;3.08;2.03;;;;;;;-1.29;77.81;100758.69;6215848;23;20004;-75
2022/01/06 05:57:00;;;;;;;2.85;2.65;;;;;;;-1.38;77.53;100744.50;6217786;23;20027;-77
2022/01/06 05:59:28;;;;;;;2.03;1.85;;;;;;;-1.31;77.66;100744.63;6213611;23;20016;-76
2022/01/06 06:01:54;;;;;;;1.55;1.45;;;;;;;-1.30;77.62;100744.44;6214154;23;20019;-76
2022/01/06 06:04:19;;;;;;;1.58;1.48;;;;;;;-1.34;78.00;100729.72;6216570;23;20008;-75
2022/01/06 06:06:47;;;;;;;1.67;1.58;;;;;;;-1.35;77.46;100722.66;6240743;23;20030;-75
2022/01/06 06:09:13;;;;;;;1.08;1.00;;;;;;;-1.30;77.11;100736.38;6190982;23;20024;-75
2022/01/06 06:11:38;;;;;;;1.15;1.05;;;;;;;-1.36;77.63;100726.34;6188802;23;20384;-76
2022/01/06 06:14:12;;;;;;;1.73;1.63;;;;;;;-1.40;77.67;100730.44;6191603;23;20012;-78
2022/01/06 06:16:38;;;;;;;2.13;2.00;;;;;;;-1.39;78.10;100726.72;6193846;23;20008;-75
2022/01/06 06:19:04;;;;;;;3.40;1.83;;;;;;;-1.39;77.57;100721.34;6191896;23;20202;-76
2022/01/06 06:21:29;;;;;;;1.75;1.65;;;;;;;-1.34;77.50;100744.94;6215437;23;20007;-76
2022/01/06 06:23:57;;;;;;;1.95;1.48;;;;;;;-1.43;77.59;100731.63;6214887;23;20020;-74
2022/01/06 06:26:23;;;;;;;1.70;1.60;;;;;;;-1.31;77.67;100745.44;6214031;23;20322;-73
2022/01/06 06:28:48;;;;;;;5.15;1.02;;;;;;;-1.33;78.70;100733.22;6243752;23;20010;-75
2022/01/06 06:31:14;;;;;;;1.17;1.17;;;;;;;-1.30;77.97;100725.66;6213883;23;20058;-74
2022/01/06 06:33:39;;;;;;;1.00;1.00;;;;;;;-1.15;77.88;100732.91;6187483;23;20100;-75
2022/01/06 06:36:05;;;;;;;1.10;1.00;;;;;;;-1.12;78.65;100730.69;6188727;23;20427;-74
2022/01/06 06:38:31;;;;;;;1.77;1.67;;;;;;;-0.99;77.83;100722.03;6213660;23;20004;-74
2022/01/06 06:40:56;;;;;;;1.25;1.15;;;;;;;-1.00;77.73;100708.78;6213486;23;20027;-76
2022/01/06 06:43:24;;;;;;;0.70;0.70;;;;;;;-0.78;78.32;100728.53;6243855;22;20135;-75
2022/01/06 06:45:49;;;;;;;0.55;0.55;;;;;;;-0.69;77.94;100732.78;6164859;23;20012;-75
2022/01/06 06:48:15;;;;;;;2.13;1.40;;;;;;;-0.50;78.43;100731.41;6190709;23;20312;-74
2022/01/06 06:50:43;;;;;;;3.13;2.60;;;;;;;-0.44;77.71;100719.06;6214850;23;20031;-74
2022/01/06 06:53:09;;;;;;;2.40;2.10;;;;;;;-0.26;77.36;100737.53;6216339;23;20015;-75
2022/01/06 06:55:34;;;;;;;4.80;2.15;;;;;;;-0.21;77.20;100735.91;6215508;23;20012;-76
2022/01/06 06:58:05;;;;;;;3.00;2.22;;;;;;;-0.26;77.94;100734.84;6243183;23;20730;-76
2022/01/06 07:00:31;;;;;;;2.55;2.20;;;;;;;-0.14;77.07;100735.19;6240229;23;19996;-75
2022/01/06 07:02:57;;;;;;;1.38;1.27;;;;;;;-0.03;77.47;100745.44;6241651;23;20043;-74
2022/01/06 07:05:25;;;;;;;3.22;1.50;;;;;;;0.07;76.87;100743.28;6238799;23;20011;-77
2022/01/06 07:07:50;;;;;;;1.65;1.27;;;;;;;0.16;77.25;100746.69;6188002;23;20089;-75
2022/01/06 07:10:36;;;;;;;1.95;1.73;;;;;;;0.23;77.85;100744.91;6190433;23;20340;-75
2022/01/06 07:13:01;;;;;;;;;;;;;;;0.37;77.53;100753.97;6216456;23;20379;-76
2022/01/06 07:15:45;;;;;;;1.35;0.60;;;;;;;0.39;77.48;100741.16;6243065;23;19910;-77
2022/01/06 07:18:13;;;;;;;0.73;0.73;;;;;;;0.38;77.14;100722.50;6193350;23;20012;-70
2022/01/06 07:20:41;;;;;;;0.43;0.40;;;;;;;0.51;77.58;100722.63;6240050;23;20419;-72
2022/01/06 07:23:07;;;;;;;0.73;0.73;;;;;;;0.61;77.42;100723.13;6189361;23;20083;-73
2022/01/06 07:25:43;;;;;;;;;;;;;;;;;;;;;
2022/01/06 07:28:11;;;;;;;1.58;1.48;;;;;;;0.68;76.77;100704.38;6243602;23;20080;-76
2022/01/06 07:30:39;;;;;;;0.52;0.52;;;;;;;0.94;76.69;100733.38;6244648;23;20000;-77
2022/01/06 07:33:12;;;;;;;1.10;0.68;;;;;;;0.91;76.90;100708.72;6242783;23;20004;-78
2022/01/06 07:35:37;;;;;;;1.35;1.25;;;;;;;0.86;76.33;100696.66;6243960;23;20000;-76
2022/01/06 07:38:03;;;;;;;3.08;1.70;;;;;;;0.91;76.49;100695.25;6216685;23;20004;-77
2022/01/06 07:40:28;;;;;;;4.93;1.85;;;;;;;0.93;75.87;100698.56;6216600;23;20050;-75
2022/01/06 07:43:06;;;;;;;;;;;;;;;;;;;;;
2022/01/06 07:45:32;;;;;;;2.78;2.08;;;;;;;0.76;76.04;100676.47;6218696;23;20091;-75
2022/01/06 07:48:03;;;;;;;2.35;2.25;;;;;;;0.92;75.97;100707.66;6246085;23;20038;-75
2022/01/06 07:50:33;;;;;;;2.40;2.20;;;;;;;0.75;75.62;100672.97;6218512;23;20000;-78
2022/01/06 07:52:59;;;;;;;2.22;2.13;;;;;;;0.90;75.59;100707.03;6244963;23;20071;-76
2022/01/06 07:55:25;;;;;;;1.40;1.30;;;;;;;0.94;76.07;100706.44;6243732;23;20043;-72
2022/01/06 07:57:55;;;;;;;1.40;1.30;;;;;;;0.93;75.61;100695.88;6190137;23;20027;-74
2022/01/06 08:00:22;;;;;;;1.20;1.20;;;;;;;1.00;75.37;100700.28;6239790;23;20090;-72
2022/01/06 08:02:47;;;;;;;1.90;1.23;;;;;;;0.94;75.14;100689.47;6216478;23;20338;-74
2022/01/06 08:05:15;;;;;;;2.83;1.13;;;;;;;1.05;74.82;100686.22;6215619;23;19996;-74
2022/01/06 08:07:43;;;;;;;8.25;2.22;;;;;;;1.01;75.08;100685.78;6216544;23;20114;-79
2022/01/06 08:10:12;;;;;;;2.35;2.25;;;;;;;1.01;75.08;100671.50;6218738;23;20004;-77
2022/01/06 08:12:37;;;;;;;2.80;2.08;;;;;;;1.10;75.43;100681.06;6218640;23;20054;-77
2022/01/06 08:15:04;;;;;;;2.05;1.85;;;;;;;0.99;75.40;100665.47;6218388;23;20053;-79
2022/01/06 08:17:36;;;;;;;4.72;2.13;;;;;;;1.13;75.42;100666.38;6207478;23;20004;-77
2022/01/06 08:23:02;;;;;;;3.30;2.67;;;;;;;1.00;75.57;100656.34;6076504;23;20142;-78
2022/01/06 08:25:40;;;;;;;3.08;2.85;;;;;;;1.03;75.31;100651.38;6094488;23;20009;-78
2022/01/06 08:28:10;;;;;;;5.43;2.60;;;;;;;0.94;75.18;100630.22;6202352;22;20056;-77
2022/01/06 08:30:38;;;;;;;2.53;1.70;;;;;;;0.99;75.47;100639.38;6226336;23;20004;-78
2022/01/06 08:33:06;;;;;;;4.65;2.20;;;;;;;0.96;75.50;100633.53;6229776;23;20039;-77
2022/01/06 08:35:32;;;;;;;1.63;1.52;;;;;;;1.08;75.75;100650.81;6237420;23;20003;-77
2022/01/06 08:38:01;;;;;;;2.15;1.90;;;;;;;1.31;75.26;100684.72;6238559;23;20012;-78
2022/01/06 08:40:29;;;;;;;2.90;2.70;;;;;;;1.26;75.38;100655.69;6210993;23;20054;-79
2022/01/06 08:42:55;;;;;;;4.82;1.95;;;;;;;1.40;75.48;100670.03;6207447;23;20021;-78
2022/01/06 08:45:20;;;;;;;3.90;3.25;;;;;;;1.33;75.07;100640.38;6205522;23;20028;-78
2022/01/06 08:47:55;;;;;;;5.35;2.20;;;;;;;1.41;74.87;100655.53;6160605;23;20487;-77
2022/01/06 08:50:23;;;;;;;4.40;3.05;;;;;;;1.46;74.81;100649.56;6175188;23;20090;-78
2022/01/06 08:52:50;;;;;;;2.88;1.80;;;;;;;1.51;74.46;100639.84;6186010;23;20012;-77
2022/01/06 08:55:19;;;;;;;2.00;1.73;;;;;;;1.71;74.87;100647.19;6182349;23;20338;-77
2022/01/06 08:57:44;;;;;;;1.08;0.80;;;;;;;1.74;75.32;100628.72;6212596;23;20087;-77
2022/01/06 09:00:15;;;;;;;2.03;1.88;;;;;;;1.76;74.58;100608.81;6210108;23;20001;-77
2022/01/06 09:02:41;;;;;;;1.42;1.33;;;;;;;1.90;74.42;100624.00;6183983;23;20458;-78
2022/01/06 09:05:10;;;;;;;2.00;1.88;;;;;;;1.89;74.40;100598.06;6212989;23;20009;-77
2022/01/06 09:07:40;;;;;;;1.25;1.13;;;;;;;1.96;74.87;100598.06;6209923;23;20450;-77
2022/01/06 09:10:06;;;;;;;4.75;1.42;;;;;;;2.08;74.88;100593.75;6214000;23;20421;-77
2022/01/06 09:12:32;;;;;;;0.93;0.93;;;;;;;2.24;74.48;100593.31;6160752;23;20004;-78
2022/01/06 09:14:57;;;;;;;0.73;0.73;;;;;;;2.40;75.20;100581.28;6212083;23;20047;-77
2022/01/06 09:17:23;;;;;;;1.35;1.00;;;;;;;2.74;74.78;100608.25;6207704;23;20019;-78
2022/01/06 09:19:50;;;;;;;4.10;1.30;;;;;;;2.90;74.23;100591.59;6208088;23;20014;-77
2022/01/06 09:22:19;;;;;;;1.40;1.30;;;;;;;3.07;73.80;100585.78;6211537;23;20009;-78
2022/01/06 09:24:52;;;;;;;1.42;1.33;;;;;;;3.23;73.82;100596.09;6210897;23;20498;-78
2022/01/06 09:27:28;;;;;;;1.00;1.00;;;;;;;3.43;73.84;100600.59;6214432;23;20000;-77
2022/01/06 09:29:53;;;;;;;1.50;1.20;;;;;;;3.39;73.08;100575.03;6183973;23;20005;-78
2022/01/06 09:32:19;;;;;;;1.73;1.33;;;;;;;3.44;73.21;100562.53;6184706;23;20009;-79
2022/01/06 09:34:45;;;;;;;1.77;1.67;;;;;;;3.57;73.07;100569.75;6211769;23;20578;-78
2022/01/06 09:37:13;;;;;;;1.63;1.52;;;;;;;3.66;73.03;100584.69;6211106;23;20051;-78
2022/01/06 09:39:41;;;;;;;1.92;1.80;;;;;;;3.69;72.43;100555.53;6212447;23;20014;-77
2022/01/06 09:42:08;;;;;;;2.00;1.90;;;;;;;3.78;72.08;100568.59;6213151;22;20067;-76
2022/01/06 09:44:42;;;;;;;4.45;1.65;;;;;;;3.81;72.25;100584.41;6242162;23;20326;-76
2022/01/06 09:47:08;;;;;;;1.30;1.20;;;;;;;3.82;72.07;100587.91;6242932;23;20030;-77
2022/01/06 09:49:48;;;;;;;;;;;;;;;;;;;;;
2022/01/06 09:52:15;;;;;;;3.08;1.88;;;;;;;3.83;71.95;100590.41;6241558;23;20071;-77
2022/01/06 09:54:41;;;;;;;1.45;1.35;;;;;;;3.93;71.89;100592.66;6243044;23;20007;-77
2022/01/06 09:57:07;;;;;;;2.72;1.90;;;;;;;3.87;71.16;100580.00;6191098;23;20810;-78
2022/01/06 09:59:33;;;;;;;3.97;1.90;;;;;;;3.78;70.92;100575.88;6216282;23;20004;-77
2022/01/06 10:01:59;;;;;;;1.48;1.10;;;;;;;3.83;70.94;100593.13;6189004;23;20008;-77
2022/01/06 10:04:30;;;;;;;1.85;1.25;;;;;;;3.76;71.85;100577.97;6214073;23;20008;-78
2022/01/06 10:07:09;;;;;;;1.95;1.70;;;;;;;3.87;71.51;100588.13;6210712;23;20020;-77
2022/01/06 10:09:44;;;;;;;1.73;1.45;;;;;;;3.73;71.94;100575.72;6216218;23;20086;-78
2022/01/06 10:12:11;;;;;;;3.35;3.05;;;;;;;3.72;71.47;100566.75;6215646;23;20345;-77
2022/01/06 10:14:59;;;;;;;3.28;2.88;;;;;;;3.88;71.50;100578.94;6217594;23;20004;-78
2022/01/06 10:20:58;;;;;;;;;;;;;;;;;;;;;
2022/01/06 10:27:15;;;;;;;5.07;2.22;;;;;;;4.02;71.64;100553.44;6243683;23;20019;-79
2022/01/06 10:29:52;;;;;;;3.22;2.25;;;;;;;3.92;70.64;100517.09;6214907;23;20000;-78
2022/01/06 10:32:37;;;;;;;;;;;;;;;;;;;;;
2022/01/06 10:35:05;;;;;;;11.35;3.67;;;;;;;3.71;70.35;100500.19;6217579;23;20083;-77
2022/01/06 10:37:44;;;;;;;7.35;4.78;;;;;;;3.76;69.94;100504.94;6243512;23;20004;-77
2022/01/06 10:40:17;;;;;;;3.70;2.60;;;;;;;3.80;70.43;100519.69;6213428;23;20058;-77
2022/01/06 10:43:05;;;;;;;8.77;3.08;;;;;;;3.77;70.25;100514.72;6214505;23;20335;-77
2022/01/06 10:45:30;;;;;;;3.55;2.58;;;;;;;3.70;69.74;100486.88;6191202;23;20023;-77
2022/01/06 10:48:03;;;;;;;6.80;3.30;;;;;;;3.67;70.02;100478.16;6244741;23;20012;-78
2022/01/06 10:50:43;;;;;;;;;;;;;;;;;;;;;
2022/01/06 10:53:11;;;;;;;4.63;2.35;;;;;;;3.70;70.32;100470.66;6242313;23;20092;-77
2022/01/06 10:55:46;;;;;;;2.45;2.25;;;;;;;3.64;70.18;100456.94;6213625;23;20008;-78
2022/01/06 10:58:26;;;;;;;3.42;2.45;;;;;;;3.74;70.09;100461.03;6241805;23;20011;-78
2022/01/06 11:01:13;;;;;;;;;;;;;;;;;;;;;
2022/01/06 11:03:59;;;;;;;4.90;2.83;;;;;;;4.00;70.70;100466.25;6244148;23;20079;-78
2022/01/06 11:06:24;;;;;;;3.50;3.30;;;;;;;4.01;70.09;100454.34;6242891;23;20304;-78
2022/01/06 11:08:53;;;;;;;6.10;3.60;;;;;;;4.07;69.81;100441.00;6216844;23;20065;-78
2022/01/06 11:11:42;;;;;;;6.68;3.25;;;;;;;4.21;70.52;100445.25;6189905;23;20380;-77
2022/01/06 11:14:18;;;;;;;4.15;3.85;;;;;;;4.08;69.55;100424.53;6217401;23;20048;-77
2022/01/06 11:16:53;;;;;;;3.00;2.75;;;;;;;4.25;70.19;100435.63;6242756;23;20000;-78
2022/01/06 11:19:22;;;;;;;6.90;5.50;;;;;;;4.23;69.94;100412.53;6218201;23;20000;-77
2022/01/06 11:21:59;;;;;;;;;;;;;;;;;;;;;
2022/01/06 11:24:40;;;;;;;;;;;;;;;;;;;;;
2022/01/06 11:27:22;;;;;;;;;;;;;;;;;;;;;
2022/01/06 11:29:50;;;;;;;11.77;5.30;;;;;;;4.32;70.21;100393.06;6243653;23;20086;-77
2022/01/06 11:33:02;;;;;;;8.88;6.00;;;;;;;4.59;69.60;100419.84;6191385;23;20453;-78
2022/01/06 11:35:28;;;;;;;7.22;5.60;;;;;;;4.48;69.84;100394.34;6239622;23;20008;-77
2022/01/06 11:38:01;;;;;;;7.57;4.95;;;;;;;4.61;69.86;100403.34;6194417;23;20339;-78
2022/01/06 11:40:44;;;;;;;;;;;;;;;;;;;;;
2022/01/06 11:43:10;;;;;;;5.80;4.53;;;;;;;4.80;70.36;100420.41;6242138;22;20134;-77
2022/01/06 11:45:41;;;;;;;4.60;4.07;;;;;;;4.75;70.13;100388.59;6240552;23;20431;-77
2022/01/06 11:48:19;;;;;;;6.95;4.60;;;;;;;4.80;70.14;100372.47;6218026;23;20031;-77
2022/01/06 11:51:15;;;;;;;4.88;4.03;;;;;;;4.91;69.35;100379.00;6218405;23;20421;-76
2022/01/06 11:53:33;;;;;;;9.57;5.22;;;;;;;5.01;69.50;100389.31;6234219;23;20000;-78
2022/01/06 11:56:11;;;;;;;5.05;3.97;;;;;;;5.09;69.61;100390.84;6191199;23;20395;-77
2022/01/06 11:58:40;;;;;;;6.45;4.13;;;;;;;5.22;68.83;100396.06;6218910;23;20414;-77
2022/01/06 12:01:12;;;;;;;8.98;3.65;;;;;;;5.26;68.50;100386.44;6216309;23;20007;-77
2022/01/06 12:03:43;;;;;;;7.28;4.10;;;;;;;5.30;68.51;100381.34;6219096;23;20050;-77
2022/01/06 12:06:41;;;;;;;;;;;;;;;;;;;;;
2022/01/06 12:09:25;;;;;;;11.30;5.22;;;;;;;5.24;68.53;100373.09;6241343;23;20100;-78
2022/01/06 12:12:13;;;;;;;15.60;6.40;;;;;;;5.37;68.26;100365.81;6218323;23;20008;-78
2022/01/06 12:14:41;;;;;;;17.73;5.93;;;;;;;5.29;67.75;100361.56;6241643;23;20011;-78
2022/01/06 12:17:13;;;;;;;12.93;5.03;;;;;;;5.31;68.37;100348.59;6240479;23;20018;-78
2022/01/06 12:19:42;;;;;;;7.03;5.15;;;;;;;5.33;68.51;100337.50;6192683;23;20085;-78